Time,TemperatureF,DewpointF,PressureIn,WindDirection,WindDirectionDegrees,WindSpeedMPH,WindSpeedGustMPH,Humidity,HourlyPrecipIn,Conditions,Clouds,dailyrainin,SoftwareType,DateUTC
2013-05-03 00:00:00,37.0,33.0,30.27,NNW,329,8.0,12.0,85,0.00,RA,,0.00,WeatherDisplay:10.37,2013-05-03 05:00:00,
2013-05-03 00:10:00,37.2,32.8,30.26,NNW,327,7.0,12.0,84,0.00,RA,,0.00,WeatherDisplay:10.37,2013-05-03 05:10:00,
2013-05-03 00:15:00,37.2,32.8,30.28,NW,325,7.0,10.0,84,0.00,RA,,0.00,WeatherDisplay:10.37,2013-05-03 05:15:00,
2013-05-03 00:20:00,37.3,32.9,30.27,NW,322,6.0,9.0,84,0.00,OVC,,0.00,WeatherDisplay:10.37,2013-05-03 05:20:00,
2013-05-03 00:25:00,37.3,32.9,30.27,NW,324,8.0,10.0,84,0.00,OVC,,0.00,WeatherDisplay:10.37,2013-05-03 05:25:00,
2013-05-03 00:30:00,37.3,32.6,30.26,NNW,327,8.0,10.0,83,0.00,OVC,,0.00,WeatherDisplay:10.37,2013-05-03 05:30:00,
2013-05-03 00:40:00,37.3,32.6,30.26,NW,326,7.0,10.0,83,0.00,OVC,,0.00,WeatherDisplay:10.37,2013-05-03 05:40:00,
2013-05-03 00:45:00,37.4,32.7,30.27,NW,323,6.0,9.0,83,0.00,OVC,,0.00,WeatherDisplay:10.37,2013-05-03 05:45:00,
2013-05-03 00:50:00,37.4,32.7,30.27,NW,321,6.0,8.0,83,0.00,OVC,,0.00,WeatherDisplay:10.37,2013-05-03 05:50:00,
2013-05-03 00:55:00,37.3,32.6,30.26,NNW,328,7.0,12.0,83,0.00,OVC,,0.00,WeatherDisplay:10.37,2013-05-03 05:55:00,
2013-05-03 01:00:00,37.4,32.7,30.25,NNW,330,7.0,12.0,83,0.00,OVC,,0.00,WeatherDisplay:10.37,2013-05-03 06:00:00,
2013-05-03 01:10:00,37.4,32.7,30.26,NNW,327,7.0,10.0,83,0.00,OVC,,0.00,WeatherDisplay:10.37,2013-05-03 06:10:00,
2013-05-03 01:15:00,37.5,32.5,30.26,NW,326,6.0,9.0,82,0.00,OVC,,0.00,WeatherDisplay:10.37,2013-05-03 06:15:00,
2013-05-03 01:20:00,37.6,32.6,30.26,NW,325,7.0,10.0,82,0.00,OVC,,0.00,WeatherDisplay:10.37,2013-05-03 06:20:00,
2013-05-03 01:30:00,37.6,32.6,30.25,NW,324,7.0,10.0,82,0.00,OVC,,0.00,WeatherDisplay:10.37,2013-05-03 06:30:00,
2013-05-03 01:40:00,37.7,32.4,30.24,NNW,329,7.0,10.0,81,0.00,OVC,,0.00,WeatherDisplay:10.37,2013-05-03 06:40:00,
2013-05-03 01:45:00,37.7,32.4,30.24,NNW,331,8.0,10.0,81,0.00,OVC,,0.00,WeatherDisplay:10.37,2013-05-03 06:45:00,
2013-05-03 01:55:00,37.7,32.4,30.24,NNW,329,7.0,10.0,81,0.00,OVC,,0.00,WeatherDisplay:10.37,2013-05-03 06:55:00,
2013-05-03 02:00:00,37.7,32.4,30.23,NNW,331,8.0,12.0,81,0.00,OVC,,0.00,WeatherDisplay:10.37,2013-05-03 07:00:00,
2013-05-03 02:10:00,37.6,32.3,30.21,NNW,330,9.0,13.0,81,0.00,OVC,,0.00,WeatherDisplay:10.37,2013-05-03 07:10:00,
2013-05-03 02:15:00,37.6,32.3,30.21,NNW,331,8.0,13.0,81,0.00,OVC,,0.00,WeatherDisplay:10.37,2013-05-03 07:15:00,
2013-05-03 02:20:00,37.6,32.3,30.21,NNW,331,9.0,12.0,81,0.00,OVC,,0.00,WeatherDisplay:10.37,2013-05-03 07:20:00,
2013-05-03 02:25:00,37.6,32.3,30.21,NNW,331,9.0,12.0,81,0.00,OVC,,0.00,WeatherDisplay:10.37,2013-05-03 07:25:00,
2013-05-03 02:30:00,37.7,32.4,30.21,NNW,331,7.0,11.0,81,0.00,OVC,,0.00,WeatherDisplay:10.37,2013-05-03 07:30:00,
2013-05-03 02:35:00,37.7,32.4,30.21,NNW,332,8.0,12.0,81,0.00,OVC,,0.00,WeatherDisplay:10.37,2013-05-03 07:35:00,
2013-05-03 02:40:00,37.7,32.1,30.21,NNW,332,8.0,10.0,80,0.00,OVC,,0.00,WeatherDisplay:10.37,2013-05-03 07:40:00,
2013-05-03 02:45:00,37.7,32.1,30.20,NNW,332,9.0,12.0,80,0.00,OVC,,0.00,WeatherDisplay:10.37,2013-05-03 07:45:00,
2013-05-03 02:50:00,37.7,32.0,30.18,NNW,335,9.0,14.0,80,0.00,OVC,,0.00,WeatherDisplay:10.37,2013-05-03 07:50:00,
2013-05-03 03:00:00,37.8,32.2,30.20,NNW,328,9.0,12.0,80,0.00,OVC,,0.00,WeatherDisplay:10.37,2013-05-03 08:00:00,
2013-05-03 03:10:00,37.8,32.1,30.20,NW,324,7.0,10.0,80,0.00,OVC,,0.00,WeatherDisplay:10.37,2013-05-03 08:10:00,
2013-05-03 03:15:00,37.8,32.1,30.19,NW,322,8.0,10.0,80,0.00,OVC,,0.00,WeatherDisplay:10.37,2013-05-03 08:15:00,
2013-05-03 03:20:00,37.7,32.1,30.19,NW,321,7.0,10.0,80,0.00,OVC,,0.00,WeatherDisplay:10.37,2013-05-03 08:20:00,
2013-05-03 03:25:00,37.7,32.4,30.19,NNW,327,8.0,10.0,81,0.00,OVC,,0.00,WeatherDisplay:10.37,2013-05-03 08:25:00,
2013-05-03 03:30:00,37.7,32.4,30.19,NNW,330,8.0,12.0,81,0.00,OVC,,0.00,WeatherDisplay:10.37,2013-05-03 08:30:00,
2013-05-03 03:40:00,37.7,32.7,30.20,NNW,328,6.0,12.0,82,0.00,OVC,,0.00,WeatherDisplay:10.37,2013-05-03 08:40:00,
2013-05-03 03:45:00,37.7,32.7,30.20,NNW,327,7.0,10.0,82,0.00,OVC,,0.00,WeatherDisplay:10.37,2013-05-03 08:45:00,
2013-05-03 03:50:00,37.7,32.7,30.19,NNW,331,8.0,10.0,82,0.00,OVC,,0.00,WeatherDisplay:10.37,2013-05-03 08:50:00,
2013-05-03 03:55:00,37.6,32.6,30.19,NNW,329,7.0,10.0,82,0.00,OVC,,0.00,WeatherDisplay:10.37,2013-05-03 08:55:00,
2013-05-03 04:00:00,37.6,32.9,30.19,NNW,330,8.0,10.0,83,0.00,OVC,,0.00,WeatherDisplay:10.37,2013-05-03 09:00:00,
2013-05-03 04:10:00,37.6,32.9,30.19,NNW,328,7.0,12.0,83,0.00,OVC,,0.00,WeatherDisplay:10.37,2013-05-03 09:10:00,
2013-05-03 04:15:00,37.6,32.9,30.18,NNW,331,9.0,12.0,83,0.00,OVC,,0.00,WeatherDisplay:10.37,2013-05-03 09:15:00,
2013-05-03 04:20:00,37.5,32.5,30.18,NNW,332,8.0,12.0,82,0.00,OVC,,0.00,WeatherDisplay:10.37,2013-05-03 09:20:00,
2013-05-03 04:25:00,37.5,32.5,30.17,NNW,331,9.0,13.0,82,0.00,OVC,,0.00,WeatherDisplay:10.37,2013-05-03 09:25:00,
2013-05-03 04:30:00,37.5,32.5,30.17,NNW,329,9.0,13.0,82,0.00,OVC,,0.00,WeatherDisplay:10.37,2013-05-03 09:30:00,
2013-05-03 04:35:00,37.4,32.4,30.18,NW,326,6.0,10.0,82,0.00,OVC,,0.00,WeatherDisplay:10.37,2013-05-03 09:35:00,
2013-05-03 04:40:00,37.4,32.4,30.19,NW,322,6.0,10.0,82,0.00,OVC,,0.00,WeatherDisplay:10.37,2013-05-03 09:40:00,
2013-05-03 04:45:00,37.4,32.4,30.19,NNW,327,7.0,12.0,82,0.00,OVC,,0.00,WeatherDisplay:10.37,2013-05-03 09:45:00,
2013-05-03 04:50:00,37.4,32.4,30.19,NNW,328,7.0,12.0,82,0.00,OVC,,0.00,WeatherDisplay:10.37,2013-05-03 09:50:00,
2013-05-03 04:55:00,37.4,32.4,30.19,NNW,330,6.0,10.0,82,0.00,OVC,,0.00,WeatherDisplay:10.37,2013-05-03 09:55:00,
2013-05-03 05:00:00,37.3,32.3,30.18,NNW,330,8.0,10.0,82,0.00,OVC,,0.00,WeatherDisplay:10.37,2013-05-03 10:00:00,
2013-05-03 05:10:00,37.3,32.3,30.17,NNW,335,12.0,15.0,82,0.00,OVC,,0.00,WeatherDisplay:10.37,2013-05-03 10:10:00,
2013-05-03 05:20:00,37.2,32.2,30.17,NW,320,8.0,12.0,82,0.00,OVC,,0.00,WeatherDisplay:10.37,2013-05-03 10:20:00,
2013-05-03 05:25:00,37.2,32.2,30.16,NW,325,10.0,14.0,82,0.00,OVC,,0.00,WeatherDisplay:10.37,2013-05-03 10:25:00,
2013-05-03 05:30:00,37.1,32.1,30.16,NNW,329,9.0,12.0,82,0.00,OVC,,0.00,WeatherDisplay:10.37,2013-05-03 10:30:00,
2013-05-03 05:40:00,37.0,31.8,30.16,NNW,333,8.0,13.0,81,0.00,OVC,,0.00,WeatherDisplay:10.37,2013-05-03 10:40:00,
2013-05-03 05:45:00,37.1,31.8,30.16,NNW,333,12.0,17.0,81,0.00,OVC,,0.00,WeatherDisplay:10.37,2013-05-03 10:45:00,
2013-05-03 05:50:00,37.1,31.8,30.16,NW,326,9.0,14.0,81,0.00,OVC,,0.00,WeatherDisplay:10.37,2013-05-03 10:50:00,
2013-05-03 05:55:00,37.0,31.8,30.16,NW,323,9.0,13.0,81,0.00,OVC,,0.00,WeatherDisplay:10.37,2013-05-03 10:55:00,
2013-05-03 06:00:00,37.0,31.7,30.16,NNW,328,9.0,15.0,81,0.00,OVC,,0.00,WeatherDisplay:10.37,2013-05-03 11:00:00,
2013-05-03 06:10:00,36.9,31.6,30.17,NNW,328,9.0,14.0,81,0.00,BKN,,0.00,WeatherDisplay:10.37,2013-05-03 11:10:00,
2013-05-03 06:20:00,36.8,31.5,30.17,NNW,331,12.0,16.0,81,0.00,BKN,,0.00,WeatherDisplay:10.37,2013-05-03 11:20:00,
2013-05-03 06:25:00,36.9,31.3,30.17,NNW,330,9.0,14.0,80,0.00,BKN,,0.00,WeatherDisplay:10.37,2013-05-03 11:25:00,
2013-05-03 06:30:00,36.8,31.2,30.17,NW,325,8.0,12.0,80,0.00,BKN,,0.00,WeatherDisplay:10.37,2013-05-03 11:30:00,
2013-05-03 06:35:00,36.7,31.4,30.17,NNW,330,10.0,14.0,81,0.00,BKN,,0.00,WeatherDisplay:10.37,2013-05-03 11:35:00,
2013-05-03 06:40:00,36.7,31.4,30.17,NNW,331,9.0,14.0,81,0.00,BKN,,0.00,WeatherDisplay:10.37,2013-05-03 11:40:00,
2013-05-03 06:45:00,36.6,31.3,30.17,NNW,331,8.0,12.0,81,0.00,BKN,,0.00,WeatherDisplay:10.37,2013-05-03 11:45:00,
2013-05-03 06:50:00,36.6,31.0,30.17,NNW,331,9.0,13.0,80,0.00,BKN,,0.00,WeatherDisplay:10.37,2013-05-03 11:50:00,
2013-05-03 06:55:00,36.6,31.0,30.17,NNW,329,8.0,15.0,80,0.00,BKN,,0.00,WeatherDisplay:10.37,2013-05-03 11:55:00,
2013-05-03 07:00:00,36.6,31.3,30.17,NNW,330,9.0,13.0,81,0.00,BKN,,0.00,WeatherDisplay:10.37,2013-05-03 12:00:00,
2013-05-03 07:10:00,36.6,31.3,30.18,NW,326,8.0,13.0,81,0.00,FEW,,0.00,WeatherDisplay:10.37,2013-05-03 12:10:00,
2013-05-03 07:15:00,36.7,31.1,30.18,NNW,329,8.0,14.0,80,0.00,FEW,,0.00,WeatherDisplay:10.37,2013-05-03 12:15:00,
2013-05-03 07:20:00,36.7,31.1,30.18,NNW,332,12.0,17.0,80,0.00,FEW,,0.00,WeatherDisplay:10.37,2013-05-03 12:20:00,
2013-05-03 07:25:00,36.7,31.1,30.18,NNW,330,9.0,14.0,80,0.00,FEW,,0.00,WeatherDisplay:10.37,2013-05-03 12:25:00,
2013-05-03 07:30:00,36.6,31.0,30.17,NNW,327,10.0,14.0,80,0.00,FEW,,0.00,WeatherDisplay:10.37,2013-05-03 12:30:00,
2013-05-03 07:40:00,36.6,31.3,30.16,NNW,327,12.0,17.0,81,0.00,FEW,,0.00,WeatherDisplay:10.37,2013-05-03 12:40:00,
2013-05-03 07:50:00,36.6,31.3,30.16,NW,325,9.0,12.0,81,0.00,FEW,,0.00,WeatherDisplay:10.37,2013-05-03 12:50:00,
2013-05-03 07:55:00,36.5,31.2,30.16,NW,322,8.0,13.0,81,0.00,FEW,,0.00,WeatherDisplay:10.37,2013-05-03 12:55:00,
2013-05-03 08:00:00,36.5,31.2,30.16,NNW,328,10.0,14.0,81,0.00,FEW,,0.00,WeatherDisplay:10.37,2013-05-03 13:00:00,
2013-05-03 08:10:00,36.3,31.0,30.15,NW,323,10.0,17.0,81,0.00,SCT,,0.00,WeatherDisplay:10.37,2013-05-03 13:10:00,
2013-05-03 08:15:00,36.3,31.0,30.15,NW,321,10.0,15.0,81,0.00,SCT,,0.00,WeatherDisplay:10.37,2013-05-03 13:15:00,
2013-05-03 08:20:00,36.4,31.1,30.16,NW,322,8.0,15.0,81,0.00,SCT,,0.00,WeatherDisplay:10.37,2013-05-03 13:20:00,
2013-05-03 08:25:00,36.3,31.0,30.15,NW,326,10.0,15.0,81,0.00,SCT,,0.00,WeatherDisplay:10.37,2013-05-03 13:25:00,
2013-05-03 08:30:00,36.4,31.1,30.15,NW,324,10.0,15.0,81,0.00,SCT,,0.00,WeatherDisplay:10.37,2013-05-03 13:30:00,
2013-05-03 08:35:00,36.3,31.1,30.14,NW,321,12.0,16.0,81,0.00,SCT,,0.00,WeatherDisplay:10.37,2013-05-03 13:35:00,
2013-05-03 08:40:00,36.1,30.5,30.14,NW,324,13.0,16.0,80,0.00,SCT,,0.00,WeatherDisplay:10.37,2013-05-03 13:40:00,
2013-05-03 08:45:00,36.1,30.9,30.13,NW,321,9.0,18.0,81,0.00,SCT,,0.00,WeatherDisplay:10.37,2013-05-03 13:45:00,
2013-05-03 08:50:00,36.3,30.7,30.14,NW,317,14.0,18.0,80,0.00,SCT,,0.00,WeatherDisplay:10.37,2013-05-03 13:50:00,
2013-05-03 08:55:00,36.3,30.7,30.13,NW,324,14.0,21.0,80,0.00,SCT,,0.00,WeatherDisplay:10.37,2013-05-03 13:55:00,
2013-05-03 09:00:00,36.5,31.2,30.14,NW,323,10.0,15.0,81,0.00,SCT,,0.00,WeatherDisplay:10.37,2013-05-03 14:00:00,
2013-05-03 09:10:00,36.6,30.7,30.13,NNW,327,14.0,18.0,79,0.00,CLR,,0.00,WeatherDisplay:10.37,2013-05-03 14:10:00,
2013-05-03 09:15:00,36.6,30.3,30.13,NNW,328,13.0,20.0,78,0.00,CLR,,0.00,WeatherDisplay:10.37,2013-05-03 14:15:00,
2013-05-03 09:20:00,36.8,31.2,30.12,NNW,327,10.0,16.0,80,0.00,CLR,,0.00,WeatherDisplay:10.37,2013-05-03 14:20:00,
2013-05-03 09:30:00,37.0,30.8,30.12,NNW,332,15.0,20.0,78,0.00,CLR,,0.00,WeatherDisplay:10.37,2013-05-03 14:30:00,
2013-05-03 09:40:00,36.9,30.3,30.12,NNW,334,15.0,24.0,77,0.00,CLR,,0.00,WeatherDisplay:10.37,2013-05-03 14:40:00,
2013-05-03 09:45:00,37.1,30.8,30.11,NNW,331,14.0,20.0,78,0.00,CLR,,0.00,WeatherDisplay:10.37,2013-05-03 14:45:00,
2013-05-03 09:50:00,36.9,30.4,30.11,NNW,328,13.0,21.0,77,0.00,CLR,,0.00,WeatherDisplay:10.37,2013-05-03 14:50:00,
2013-05-03 09:55:00,37.0,30.4,30.10,NNW,329,20.0,25.0,77,0.00,CLR,,0.00,WeatherDisplay:10.37,2013-05-03 14:55:00,
2013-05-03 10:00:00,37.2,31.0,30.11,NNW,330,12.0,20.0,78,0.00,CLR,,0.00,WeatherDisplay:10.37,2013-05-03 15:00:00,
2013-05-03 10:10:00,37.3,30.8,30.11,NNW,329,12.0,20.0,77,0.00,CLR,,0.00,WeatherDisplay:10.37,2013-05-03 15:10:00,
2013-05-03 10:15:00,37.4,30.8,30.11,NNW,329,14.0,20.0,77,0.00,CLR,,0.00,WeatherDisplay:10.37,2013-05-03 15:15:00,
2013-05-03 10:20:00,37.6,31.0,30.10,NNW,328,12.0,17.0,77,0.00,CLR,,0.00,WeatherDisplay:10.37,2013-05-03 15:20:00,
2013-05-03 10:25:00,37.9,31.3,30.11,NNW,327,13.0,17.0,77,0.00,CLR,,0.00,WeatherDisplay:10.37,2013-05-03 15:25:00,
2013-05-03 10:30:00,37.9,31.0,30.10,NNW,327,15.0,22.0,76,0.00,CLR,,0.00,WeatherDisplay:10.37,2013-05-03 15:30:00,
2013-05-03 10:40:00,37.9,31.0,30.11,NW,326,14.0,21.0,76,0.00,CLR,,0.00,WeatherDisplay:10.37,2013-05-03 15:40:00,
2013-05-03 10:45:00,38.0,30.8,30.10,NNW,331,17.0,23.0,75,0.00,CLR,,0.00,WeatherDisplay:10.37,2013-05-03 15:45:00,
2013-05-03 10:55:00,38.2,31.6,30.10,NNW,330,13.0,22.0,77,0.00,CLR,,0.00,WeatherDisplay:10.37,2013-05-03 15:55:00,
2013-05-03 11:00:00,38.2,30.9,30.10,NNW,329,15.0,20.0,75,0.00,CLR,,0.00,WeatherDisplay:10.37,2013-05-03 16:00:00,
2013-05-03 11:10:00,38.4,30.8,30.10,NW,320,14.0,20.0,74,0.00,CLR,,0.00,WeatherDisplay:10.37,2013-05-03 16:10:00,
2013-05-03 11:20:00,38.6,30.7,30.10,NNW,328,14.0,20.0,73,0.00,CLR,,0.00,WeatherDisplay:10.37,2013-05-03 16:20:00,
2013-05-03 11:25:00,38.9,31.4,30.10,NW,326,13.0,20.0,74,0.00,CLR,,0.00,WeatherDisplay:10.37,2013-05-03 16:25:00,
2013-05-03 11:30:00,38.9,31.3,30.08,NW,323,15.0,20.0,74,0.00,CLR,,0.00,WeatherDisplay:10.37,2013-05-03 16:30:00,
2013-05-03 11:40:00,39.2,30.9,30.08,NW,326,16.0,26.0,72,0.00,CLR,,0.00,WeatherDisplay:10.37,2013-05-03 16:40:00,
2013-05-03 11:45:00,39.4,31.1,30.08,NNW,329,14.0,22.0,72,0.00,CLR,,0.00,WeatherDisplay:10.37,2013-05-03 16:45:00,
2013-05-03 11:50:00,39.5,31.2,30.08,NNW,330,15.0,20.0,72,0.00,CLR,,0.00,WeatherDisplay:10.37,2013-05-03 16:50:00,
2013-05-03 12:00:00,39.9,31.6,30.08,NW,324,15.0,24.0,72,0.00,CLR,,0.00,WeatherDisplay:10.37,2013-05-03 17:00:00,
2013-05-03 12:10:00,40.4,32.1,30.08,NNW,330,15.0,31.0,72,0.00,CLR,,0.00,WeatherDisplay:10.37,2013-05-03 17:10:00,
2013-05-03 12:15:00,40.4,31.7,30.08,NNW,334,16.0,23.0,71,0.00,CLR,,0.00,WeatherDisplay:10.37,2013-05-03 17:15:00,
2013-05-03 12:20:00,40.8,32.4,30.08,NNW,335,10.0,20.0,72,0.00,CLR,,0.00,WeatherDisplay:10.37,2013-05-03 17:20:00,
2013-05-03 12:25:00,40.6,31.2,30.07,NW,326,14.0,21.0,69,0.00,CLR,,0.00,WeatherDisplay:10.37,2013-05-03 17:25:00,
2013-05-03 12:30:00,40.8,31.7,30.07,NW,323,14.0,17.0,70,0.00,CLR,,0.00,WeatherDisplay:10.37,2013-05-03 17:30:00,
2013-05-03 12:40:00,41.3,32.3,30.06,NNW,329,16.0,20.0,70,0.00,CLR,,0.00,WeatherDisplay:10.37,2013-05-03 17:40:00,
2013-05-03 12:45:00,41.2,31.8,30.06,NNW,329,16.0,21.0,69,0.00,CLR,,0.00,WeatherDisplay:10.37,2013-05-03 17:45:00,
2013-05-03 12:50:00,41.0,31.6,30.06,NNW,327,15.0,23.0,69,0.00,CLR,,0.00,WeatherDisplay:10.37,2013-05-03 17:50:00,
2013-05-03 12:55:00,41.0,31.6,30.05,NNW,327,16.0,23.0,69,0.00,CLR,,0.00,WeatherDisplay:10.37,2013-05-03 17:55:00,
2013-05-03 13:00:00,41.0,31.2,30.05,NNW,329,17.0,26.0,68,0.00,CLR,,0.00,WeatherDisplay:10.37,2013-05-03 18:00:00,
2013-05-03 13:10:00,41.0,31.6,30.05,NNW,336,14.0,25.0,69,0.00,CLR,,0.00,WeatherDisplay:10.37,2013-05-03 18:10:00,
2013-05-03 13:15:00,40.8,30.6,30.05,NNW,339,20.0,25.0,67,0.00,CLR,,0.00,WeatherDisplay:10.37,2013-05-03 18:15:00,
2013-05-03 13:20:00,40.8,30.6,30.04,NNW,336,18.0,29.0,67,0.00,CLR,,0.00,WeatherDisplay:10.37,2013-05-03 18:20:00,
2013-05-03 13:25:00,41.0,30.8,30.04,NNW,336,20.0,26.0,67,0.00,CLR,,0.00,WeatherDisplay:10.37,2013-05-03 18:25:00,
2013-05-03 13:30:00,40.9,30.7,30.04,NNW,336,16.0,24.0,67,0.00,CLR,,0.00,WeatherDisplay:10.37,2013-05-03 18:30:00,
2013-05-03 13:40:00,41.0,30.5,30.04,NNW,335,21.0,29.0,66,0.00,CLR,,0.00,WeatherDisplay:10.37,2013-05-03 18:40:00,
2013-05-03 13:50:00,41.4,30.5,30.03,NNW,337,17.0,26.0,65,0.00,CLR,,0.00,WeatherDisplay:10.37,2013-05-03 18:50:00,
2013-05-03 13:55:00,41.2,31.1,30.03,NNW,332,15.0,27.0,67,0.00,CLR,,0.00,WeatherDisplay:10.37,2013-05-03 18:55:00,
2013-05-03 14:00:00,41.6,31.8,30.03,NNW,335,16.0,22.0,68,0.00,CLR,,0.00,WeatherDisplay:10.37,2013-05-03 19:00:00,
2013-05-03 14:10:00,41.7,31.1,30.02,NNW,338,20.0,26.0,66,0.00,CLR,,0.00,WeatherDisplay:10.37,2013-05-03 19:10:00,
2013-05-03 14:20:00,41.6,30.7,30.02,NNW,329,17.0,22.0,65,0.00,CLR,,0.00,WeatherDisplay:10.37,2013-05-03 19:20:00,
2013-05-03 14:25:00,41.6,30.7,30.02,NNW,331,20.0,25.0,65,0.00,CLR,,0.00,WeatherDisplay:10.37,2013-05-03 19:25:00,
2013-05-03 14:30:00,41.7,30.8,30.02,NNW,337,16.0,23.0,65,0.00,CLR,,0.00,WeatherDisplay:10.37,2013-05-03 19:30:00,
2013-05-03 14:35:00,41.5,31.0,30.02,NNW,338,17.0,21.0,66,0.00,CLR,,0.00,WeatherDisplay:10.37,2013-05-03 19:35:00,
2013-05-03 14:45:00,41.5,30.2,30.01,NNW,328,17.0,27.0,64,0.00,CLR,,0.00,WeatherDisplay:10.37,2013-05-03 19:45:00,
2013-05-03 14:50:00,41.9,30.9,30.01,NNW,329,13.0,22.0,65,0.00,CLR,,0.00,WeatherDisplay:10.37,2013-05-03 19:50:00,
2013-05-03 15:00:00,41.6,30.7,30.01,NNW,330,20.0,24.0,65,0.00,CLR,,0.00,WeatherDisplay:10.37,2013-05-03 20:00:00,
2013-05-03 15:10:00,41.8,30.9,30.00,NNW,331,15.0,23.0,65,0.00,CLR,,0.00,WeatherDisplay:10.37,2013-05-03 20:10:00,
2013-05-03 15:15:00,42.3,31.8,30.00,NNW,332,16.0,26.0,66,0.00,CLR,,0.00,WeatherDisplay:10.37,2013-05-03 20:15:00,
2013-05-03 15:20:00,42.1,30.8,30.00,NNW,339,16.0,20.0,64,0.00,CLR,,0.00,WeatherDisplay:10.37,2013-05-03 20:20:00,
2013-05-03 15:30:00,41.8,31.2,30.00,NNW,334,16.0,25.0,66,0.00,CLR,,0.00,WeatherDisplay:10.37,2013-05-03 20:30:00,
2013-05-03 15:35:00,41.7,31.5,30.00,NNW,338,15.0,21.0,67,0.00,CLR,,0.00,WeatherDisplay:10.37,2013-05-03 20:35:00,
2013-05-03 15:40:00,41.6,31.5,30.00,NNW,337,17.0,23.0,67,0.00,CLR,,0.00,WeatherDisplay:10.37,2013-05-03 20:40:00,
2013-05-03 15:45:00,41.3,32.2,30.00,NNW,335,16.0,26.0,70,0.00,CLR,,0.00,WeatherDisplay:10.37,2013-05-03 20:45:00,
2013-05-03 15:55:00,40.5,31.5,29.99,NNW,327,15.0,20.0,70,0.00,CLR,,0.00,WeatherDisplay:10.37,2013-05-03 20:55:00,
2013-05-03 16:00:00,40.4,32.0,29.99,NW,326,14.0,23.0,72,0.00,CLR,,0.00,WeatherDisplay:10.37,2013-05-03 21:00:00,
2013-05-03 16:10:00,40.5,31.8,29.99,NNW,329,15.0,26.0,71,0.00,CLR,,0.00,WeatherDisplay:10.37,2013-05-03 21:10:00,
2013-05-03 16:15:00,40.2,31.2,29.99,NNW,332,16.0,26.0,70,0.00,CLR,,0.00,WeatherDisplay:10.37,2013-05-03 21:15:00,
2013-05-03 16:20:00,40.5,31.8,29.99,NNW,333,14.0,22.0,71,0.00,CLR,,0.00,WeatherDisplay:10.37,2013-05-03 21:20:00,
2013-05-03 16:25:00,40.2,31.9,29.99,NNW,332,16.0,23.0,72,0.00,CLR,,0.00,WeatherDisplay:10.37,2013-05-03 21:25:00,
2013-05-03 16:30:00,39.9,31.9,29.99,NNW,332,17.0,23.0,73,0.00,CLR,,0.00,WeatherDisplay:10.37,2013-05-03 21:30:00,
2013-05-03 16:35:00,39.8,31.8,29.99,NNW,334,16.0,22.0,73,0.00,CLR,,0.00,WeatherDisplay:10.37,2013-05-03 21:35:00,
2013-05-03 16:40:00,39.7,31.7,29.99,NNW,337,17.0,25.0,73,0.00,CLR,,0.00,WeatherDisplay:10.37,2013-05-03 21:40:00,
2013-05-03 16:45:00,39.5,31.9,29.99,NNW,338,13.0,23.0,74,0.00,CLR,,0.00,WeatherDisplay:10.37,2013-05-03 21:45:00,
2013-05-03 16:50:00,38.9,31.7,29.99,NNW,340,21.0,27.0,75,0.00,CLR,,0.00,WeatherDisplay:10.37,2013-05-03 21:50:00,
2013-05-03 16:55:00,38.5,31.9,29.99,NNW,342,18.0,24.0,77,0.00,CLR,,0.00,WeatherDisplay:10.37,2013-05-03 21:55:00,
2013-05-03 17:00:00,38.3,32.3,29.99,NNW,345,15.0,21.0,79,0.00,CLR,,0.00,WeatherDisplay:10.37,2013-05-03 22:00:00,
2013-05-03 17:10:00,38.2,32.8,29.99,NNW,335,13.0,17.0,81,0.00,CLR,,0.00,WeatherDisplay:10.37,2013-05-03 22:10:00,
2013-05-03 17:15:00,38.1,33.1,29.99,NNW,337,13.0,23.0,82,0.00,CLR,,0.00,WeatherDisplay:10.37,2013-05-03 22:15:00,
2013-05-03 17:20:00,38.0,32.6,29.99,NNW,336,14.0,20.0,81,0.00,CLR,,0.00,WeatherDisplay:10.37,2013-05-03 22:20:00,
2013-05-03 17:25:00,37.9,32.3,29.98,NNW,332,14.0,20.0,80,0.00,CLR,,0.00,WeatherDisplay:10.37,2013-05-03 22:25:00,
2013-05-03 17:30:00,37.8,32.5,29.98,NNW,333,14.0,20.0,81,0.00,CLR,,0.00,WeatherDisplay:10.37,2013-05-03 22:30:00,
2013-05-03 17:40:00,37.7,33.0,29.98,NNW,335,9.0,20.0,83,0.00,CLR,,0.00,WeatherDisplay:10.37,2013-05-03 22:40:00,
2013-05-03 17:45:00,37.7,33.0,29.98,NNW,337,15.0,21.0,83,0.00,CLR,,0.00,WeatherDisplay:10.37,2013-05-03 22:45:00,
2013-05-03 17:50:00,37.6,32.9,29.98,NNW,339,14.0,18.0,83,0.00,CLR,,0.00,WeatherDisplay:10.37,2013-05-03 22:50:00,
2013-05-03 17:55:00,37.4,32.7,29.98,NNW,342,13.0,18.0,83,0.00,CLR,,0.00,WeatherDisplay:10.37,2013-05-03 22:55:00,
2013-05-03 18:00:00,37.4,33.0,29.98,NNW,340,10.0,15.0,84,0.00,CLR,,0.00,WeatherDisplay:10.37,2013-05-03 23:00:00,
2013-05-03 18:10:00,37.5,33.1,29.97,NNW,338,12.0,16.0,84,0.00,CLR,,0.00,WeatherDisplay:10.37,2013-05-03 23:10:00,
2013-05-03 18:15:00,37.6,33.2,29.97,NNW,335,10.0,16.0,84,0.00,CLR,,0.00,WeatherDisplay:10.37,2013-05-03 23:15:00,
2013-05-03 18:20:00,37.6,33.2,29.97,NNW,336,10.0,14.0,84,0.00,CLR,,0.00,WeatherDisplay:10.37,2013-05-03 23:20:00,
2013-05-03 18:25:00,37.6,33.2,29.97,NNW,337,9.0,14.0,84,0.00,CLR,,0.00,WeatherDisplay:10.37,2013-05-03 23:25:00,
2013-05-03 18:30:00,37.5,33.1,29.97,NNW,336,10.0,14.0,84,0.00,CLR,,0.00,WeatherDisplay:10.37,2013-05-03 23:30:00,
2013-05-03 18:40:00,37.5,33.4,29.97,NNW,339,8.0,13.0,85,0.00,CLR,,0.00,WeatherDisplay:10.37,2013-05-03 23:40:00,
2013-05-03 18:45:00,37.4,33.0,29.97,NNW,340,10.0,14.0,84,0.00,CLR,,0.00,WeatherDisplay:10.37,2013-05-03 23:45:00,
2013-05-03 18:50:00,37.5,33.1,29.97,NNW,341,10.0,15.0,84,0.00,CLR,,0.00,WeatherDisplay:10.37,2013-05-03 23:50:00,
2013-05-03 18:55:00,37.6,33.5,29.97,NNW,341,9.0,15.0,85,0.00,CLR,,0.00,WeatherDisplay:10.37,2013-05-03 23:55:00,
2013-05-03 19:00:00,37.6,33.2,29.97,NNW,335,13.0,17.0,84,0.00,CLR,,0.00,WeatherDisplay:10.37,2013-05-04 00:00:00,
2013-05-03 19:10:00,37.6,33.2,29.97,NNW,335,13.0,20.0,84,0.00,CLR,,0.00,WeatherDisplay:10.37,2013-05-04 00:10:00,
2013-05-03 19:15:00,37.6,33.2,29.97,NNW,334,13.0,16.0,84,0.00,CLR,,0.00,WeatherDisplay:10.37,2013-05-04 00:15:00,
2013-05-03 19:20:00,37.6,32.9,29.96,NNW,336,14.0,18.0,83,0.00,CLR,,0.00,WeatherDisplay:10.37,2013-05-04 00:20:00,
2013-05-03 19:25:00,37.6,32.9,29.96,NNW,337,13.0,20.0,83,0.00,CLR,,0.00,WeatherDisplay:10.37,2013-05-04 00:25:00,
2013-05-03 19:30:00,37.4,33.0,29.96,NNW,338,13.0,20.0,84,0.00,CLR,,0.00,WeatherDisplay:10.37,2013-05-04 00:30:00,
2013-05-03 19:40:00,37.3,32.9,29.96,NNW,334,16.0,22.0,84,0.00,CLR,,0.00,WeatherDisplay:10.37,2013-05-04 00:40:00,
2013-05-03 19:45:00,37.2,32.8,29.96,NNW,337,16.0,25.0,84,0.00,CLR,,0.00,WeatherDisplay:10.37,2013-05-04 00:45:00,
2013-05-03 19:50:00,36.9,32.9,29.95,NNW,336,15.0,21.0,85,0.00,CLR,,0.00,WeatherDisplay:10.37,2013-05-04 00:50:00,
2013-05-03 19:55:00,36.8,32.8,29.95,NNW,333,14.0,21.0,85,0.00,CLR,,0.00,WeatherDisplay:10.37,2013-05-04 00:55:00,
2013-05-03 20:00:00,36.8,33.0,29.95,NNW,333,10.0,20.0,86,0.00,CLR,,0.00,WeatherDisplay:10.37,2013-05-04 01:00:00,
2013-05-03 20:10:00,36.8,33.0,29.95,NNW,329,12.0,21.0,86,0.01,RA,,0.01,WeatherDisplay:10.37,2013-05-04 01:10:00,
2013-05-03 20:15:00,36.7,32.9,29.95,NNW,327,14.0,18.0,86,0.00,RA,,0.01,WeatherDisplay:10.37,2013-05-04 01:15:00,
2013-05-03 20:20:00,36.7,32.9,29.95,NNW,330,10.0,17.0,86,0.00,RA,,0.01,WeatherDisplay:10.37,2013-05-04 01:20:00,
2013-05-03 20:25:00,36.7,33.2,29.95,NNW,329,10.0,17.0,87,0.00,RA,,0.01,WeatherDisplay:10.37,2013-05-04 01:25:00,
2013-05-03 20:30:00,36.6,33.1,29.95,NNW,333,13.0,18.0,87,0.00,CLR,,0.01,WeatherDisplay:10.37,2013-05-04 01:30:00,
2013-05-03 20:40:00,36.6,33.1,29.95,NNW,329,9.0,16.0,87,0.00,CLR,,0.01,WeatherDisplay:10.37,2013-05-04 01:40:00,
2013-05-03 20:45:00,36.5,33.0,29.95,NNW,328,15.0,18.0,87,0.00,CLR,,0.01,WeatherDisplay:10.37,2013-05-04 01:45:00,
2013-05-03 20:50:00,36.4,32.9,29.95,NNW,328,13.0,20.0,87,0.00,CLR,,0.01,WeatherDisplay:10.37,2013-05-04 01:50:00,
2013-05-03 20:55:00,36.4,33.1,29.94,NNW,328,13.0,17.0,88,0.00,CLR,,0.01,WeatherDisplay:10.37,2013-05-04 01:55:00,
2013-05-03 21:00:00,36.3,32.8,29.94,NNW,327,10.0,16.0,87,0.00,CLR,,0.01,WeatherDisplay:10.37,2013-05-04 02:00:00,
2013-05-03 21:10:00,36.3,33.0,29.94,NNW,328,10.0,20.0,88,0.00,CLR,,0.01,WeatherDisplay:10.37,2013-05-04 02:10:00,
2013-05-03 21:15:00,36.3,33.0,29.94,NNW,330,9.0,15.0,88,0.00,CLR,,0.01,WeatherDisplay:10.37,2013-05-04 02:15:00,
2013-05-03 21:20:00,36.3,33.0,29.94,NNW,329,8.0,12.0,88,0.01,RA,,0.02,WeatherDisplay:10.37,2013-05-04 02:20:00,
2013-05-03 21:25:00,36.3,33.0,29.93,NNW,331,8.0,13.0,88,0.00,RA,,0.02,WeatherDisplay:10.37,2013-05-04 02:25:00,
2013-05-03 21:30:00,36.2,33.2,29.93,NNW,329,10.0,14.0,89,0.00,RA,,0.02,WeatherDisplay:10.37,2013-05-04 02:30:00,
2013-05-03 21:40:00,36.3,33.3,29.93,NW,322,9.0,13.0,89,0.00,CLR,,0.02,WeatherDisplay:10.37,2013-05-04 02:40:00,
2013-05-03 21:45:00,36.3,33.3,29.93,NW,323,7.0,13.0,89,0.00,CLR,,0.02,WeatherDisplay:10.37,2013-05-04 02:45:00,
2013-05-03 21:50:00,36.3,33.3,29.93,NW,323,9.0,13.0,89,0.00,CLR,,0.02,WeatherDisplay:10.37,2013-05-04 02:50:00,
2013-05-03 21:55:00,36.3,33.4,29.93,NW,326,8.0,12.0,89,0.01,RA,,0.03,WeatherDisplay:10.37,2013-05-04 02:55:00,
2013-05-03 22:00:00,36.4,33.4,29.93,NW,325,7.0,13.0,89,0.00,RA,,0.03,WeatherDisplay:10.37,2013-05-04 03:00:00,
2013-05-03 22:10:00,36.3,33.4,29.92,NW,321,8.0,12.0,89,0.00,RA,,0.03,WeatherDisplay:10.37,2013-05-04 03:10:00,
2013-05-03 22:15:00,36.3,33.3,29.92,NW,319,9.0,15.0,89,0.01,RA,,0.04,WeatherDisplay:10.37,2013-05-04 03:15:00,
2013-05-03 22:20:00,36.3,33.3,29.92,NW,324,9.0,15.0,89,0.00,RA,,0.04,WeatherDisplay:10.37,2013-05-04 03:20:00,
2013-05-03 22:25:00,36.3,33.3,29.92,NW,326,9.0,17.0,89,0.00,RA,,0.04,WeatherDisplay:10.37,2013-05-04 03:25:00,
2013-05-03 22:30:00,36.4,33.4,29.92,NW,325,10.0,15.0,89,0.00,RA,,0.04,WeatherDisplay:10.37,2013-05-04 03:30:00,
2013-05-03 22:40:00,36.3,33.3,29.90,NNW,329,9.0,18.0,89,0.00,CLR,,0.04,WeatherDisplay:10.37,2013-05-04 03:40:00,
2013-05-03 22:45:00,36.3,33.3,29.90,NNW,328,13.0,17.0,89,0.00,CLR,,0.04,WeatherDisplay:10.37,2013-05-04 03:45:00,
2013-05-03 22:50:00,36.3,33.3,29.90,NNW,330,12.0,18.0,89,0.00,CLR,,0.04,WeatherDisplay:10.37,2013-05-04 03:50:00,
2013-05-03 23:00:00,36.5,33.5,29.90,NNW,336,10.0,17.0,89,0.00,CLR,,0.04,WeatherDisplay:10.37,2013-05-04 04:00:00,
2013-05-03 23:05:00,36.5,33.6,29.90,NNW,338,14.0,20.0,89,0.00,CLR,,0.04,WeatherDisplay:10.37,2013-05-04 04:05:00,
2013-05-03 23:10:00,36.5,33.2,29.90,NNW,335,13.0,20.0,88,0.00,CLR,,0.04,WeatherDisplay:10.37,2013-05-04 04:10:00,
2013-05-03 23:15:00,36.5,33.2,29.89,NNW,333,13.0,17.0,88,0.00,CLR,,0.04,WeatherDisplay:10.37,2013-05-04 04:15:00,
2013-05-03 23:20:00,36.4,33.1,29.89,NNW,338,14.0,20.0,88,0.00,CLR,,0.04,WeatherDisplay:10.37,2013-05-04 04:20:00,
2013-05-03 23:25:00,36.4,33.1,29.89,NNW,334,12.0,20.0,88,0.00,CLR,,0.04,WeatherDisplay:10.37,2013-05-04 04:25:00,
2013-05-03 23:30:00,36.4,33.1,29.89,NNW,339,16.0,25.0,88,0.00,CLR,,0.04,WeatherDisplay:10.37,2013-05-04 04:30:00,
2013-05-03 23:35:00,36.5,33.2,29.88,NNW,343,16.0,22.0,88,0.00,CLR,,0.04,WeatherDisplay:10.37,2013-05-04 04:35:00,
2013-05-03 23:40:00,36.6,33.1,29.88,NNW,339,16.0,21.0,87,0.00,CLR,,0.04,WeatherDisplay:10.37,2013-05-04 04:40:00,
2013-05-03 23:45:00,36.7,32.9,29.88,NNW,339,15.0,27.0,86,0.00,CLR,,0.04,WeatherDisplay:10.37,2013-05-04 04:45:00,
2013-05-03 23:50:00,36.5,32.7,29.87,NNW,341,17.0,24.0,86,0.00,CLR,,0.04,WeatherDisplay:10.37,2013-05-04 04:50:00,